sensor_id;sensor_type;location;lat;lon;timestamp;temperature;humidity
1524;DHT22;755;53.658;10.118;2022-10-31T00:08:05;10.40;99.90
1524;DHT22;755;53.658;10.118;2022-10-31T00:18:10;10.40;99.90
1524;DHT22;755;53.658;10.118;2022-10-31T00:28:12;10.40;99.90
1524;DHT22;755;53.658;10.118;2022-10-31T00:38:16;10.40;99.90
1524;DHT22;755;53.658;10.118;2022-10-31T00:48:19;10.30;99.90
1524;DHT22;755;53.658;10.118;2022-10-31T00:58:23;10.30;99.90
1524;DHT22;755;53.658;10.118;2022-10-31T01:08:26;10.20;99.90
1524;DHT22;755;53.658;10.118;2022-10-31T01:18:30;10.20;99.90
1524;DHT22;755;53.658;10.118;2022-10-31T01:28:33;10.20;99.90
1524;DHT22;755;53.658;10.118;2022-10-31T01:38:36;10.30;99.90
1524;DHT22;755;53.658;10.118;2022-10-31T01:48:39;10.30;99.90
1524;DHT22;755;53.658;10.118;2022-10-31T01:58:45;10.40;99.90
1524;DHT22;755;53.658;10.118;2022-10-31T02:08:48;10.60;99.90
1524;DHT22;755;53.658;10.118;2022-10-31T02:18:53;10.90;99.90
1524;DHT22;755;53.658;10.118;2022-10-31T02:29:30;11.20;99.90
1524;DHT22;755;53.658;10.118;2022-10-31T02:39:44;11.40;99.90
1524;DHT22;755;53.658;10.118;2022-10-31T02:49:53;11.60;99.90
1524;DHT22;755;53.658;10.118;2022-10-31T03:00:01;11.70;99.90
1524;DHT22;755;53.658;10.118;2022-10-31T03:10:04;11.70;99.90
1524;DHT22;755;53.658;10.118;2022-10-31T03:20:10;11.70;99.90
1524;DHT22;755;53.658;10.118;2022-10-31T03:30:13;11.60;99.90
1524;DHT22;755;53.658;10.118;2022-10-31T03:40:19;11.40;99.90
1524;DHT22;755;53.658;10.118;2022-10-31T03:50:24;11.40;99.90
1524;DHT22;755;53.658;10.118;2022-10-31T04:00:31;11.30;99.90
1524;DHT22;755;53.658;10.118;2022-10-31T04:10:35;11.30;99.90
1524;DHT22;755;53.658;10.118;2022-10-31T04:20:41;11.40;99.90
1524;DHT22;755;53.658;10.118;2022-10-31T04:30:43;11.60;99.90
1524;DHT22;755;53.658;10.118;2022-10-31T04:40:47;11.80;99.90
1524;DHT22;755;53.658;10.118;2022-10-31T04:50:49;12.00;99.90
1524;DHT22;755;53.658;10.118;2022-10-31T05:00:53;12.20;99.90
1524;DHT22;755;53.658;10.118;2022-10-31T05:10:55;12.30;99.90
1524;DHT22;755;53.658;10.118;2022-10-31T05:21:02;12.30;99.90
1524;DHT22;755;53.658;10.118;2022-10-31T05:31:04;12.40;99.90
1524;DHT22;755;53.658;10.118;2022-10-31T05:41:07;12.40;99.90
1524;DHT22;755;53.658;10.118;2022-10-31T05:51:09;12.40;99.90
1524;DHT22;755;53.658;10.118;2022-10-31T06:01:13;12.40;99.90
1524;DHT22;755;53.658;10.118;2022-10-31T06:11:15;12.40;99.90
1524;DHT22;755;53.658;10.118;2022-10-31T06:32:44;12.50;99.90
1524;DHT22;755;53.658;10.118;2022-10-31T06:42:46;12.50;99.90
1524;DHT22;755;53.658;10.118;2022-10-31T06:52:53;12.40;99.90
1524;DHT22;755;53.658;10.118;2022-10-31T07:02:56;12.50;99.90
1524;DHT22;755;53.658;10.118;2022-10-31T07:13:01;12.60;99.90
1524;DHT22;755;53.658;10.118;2022-10-31T07:23:04;12.60;99.90
1524;DHT22;755;53.658;10.118;2022-10-31T07:33:08;12.60;99.90
1524;DHT22;755;53.658;10.118;2022-10-31T07:43:11;12.60;99.90
1524;DHT22;755;53.658;10.118;2022-10-31T07:53:15;12.70;99.90
1524;DHT22;755;53.658;10.118;2022-10-31T08:03:18;12.70;99.90
1524;DHT22;755;53.658;10.118;2022-10-31T08:13:22;12.70;99.90
1524;DHT22;755;53.658;10.118;2022-10-31T08:23:24;12.80;99.90
1524;DHT22;755;53.658;10.118;2022-10-31T08:33:27;12.90;99.90
1524;DHT22;755;53.658;10.118;2022-10-31T08:43:29;13.00;99.90
1524;DHT22;755;53.658;10.118;2022-10-31T08:53:33;12.90;99.90
1524;DHT22;755;53.658;10.118;2022-10-31T09:03:36;12.80;99.90
1524;DHT22;755;53.658;10.118;2022-10-31T09:13:39;13.10;99.90
1524;DHT22;755;53.658;10.118;2022-10-31T09:23:42;13.20;99.90
1524;DHT22;755;53.658;10.118;2022-10-31T09:33:45;13.10;99.90
1524;DHT22;755;53.658;10.118;2022-10-31T09:43:54;13.20;99.90
1524;DHT22;755;53.658;10.118;2022-10-31T09:54:04;13.30;99.90
1524;DHT22;755;53.658;10.118;2022-10-31T10:04:30;13.30;99.90
1524;DHT22;755;53.658;10.118;2022-10-31T10:14:45;13.50;99.90
1524;DHT22;755;53.658;10.118;2022-10-31T10:25:00;13.60;99.90
1524;DHT22;755;53.658;10.118;2022-10-31T10:35:13;13.40;99.90
1524;DHT22;755;53.658;10.118;2022-10-31T10:45:19;13.60;99.90
1524;DHT22;755;53.658;10.118;2022-10-31T10:55:45;13.70;99.90
1524;DHT22;755;53.658;10.118;2022-10-31T11:05:52;13.60;99.90
1524;DHT22;755;53.658;10.118;2022-10-31T11:15:59;13.40;99.90
1524;DHT22;755;53.658;10.118;2022-10-31T11:26:03;13.60;99.90
1524;DHT22;755;53.658;10.118;2022-10-31T11:36:15;13.90;99.90
1524;DHT22;755;53.658;10.118;2022-10-31T11:46:21;14.10;99.90
1524;DHT22;755;53.658;10.118;2022-10-31T11:56:27;14.10;99.90
1524;DHT22;755;53.658;10.118;2022-10-31T12:06:34;14.20;99.90
1524;DHT22;755;53.658;10.118;2022-10-31T12:16:45;14.20;99.90
1524;DHT22;755;53.658;10.118;2022-10-31T12:26:57;14.10;99.90
1524;DHT22;755;53.658;10.118;2022-10-31T12:37:13;14.30;99.90
1524;DHT22;755;53.658;10.118;2022-10-31T12:47:38;14.30;99.90
1524;DHT22;755;53.658;10.118;2022-10-31T12:57:58;14.50;99.90
1524;DHT22;755;53.658;10.118;2022-10-31T13:08:05;14.50;99.90
1524;DHT22;755;53.658;10.118;2022-10-31T13:18:33;14.70;99.90
1524;DHT22;755;53.658;10.118;2022-10-31T13:28:41;14.80;99.90
1524;DHT22;755;53.658;10.118;2022-10-31T13:38:50;14.90;99.90
1524;DHT22;755;53.658;10.118;2022-10-31T13:48:53;14.70;99.90
1524;DHT22;755;53.658;10.118;2022-10-31T13:59:17;14.50;99.90
1524;DHT22;755;53.658;10.118;2022-10-31T14:09:25;14.50;99.90
1524;DHT22;755;53.658;10.118;2022-10-31T14:19:29;14.40;99.90
1524;DHT22;755;53.658;10.118;2022-10-31T14:29:33;14.20;99.90
1524;DHT22;755;53.658;10.118;2022-10-31T14:39:49;14.10;99.90
1524;DHT22;755;53.658;10.118;2022-10-31T14:50:22;13.90;99.90
1524;DHT22;755;53.658;10.118;2022-10-31T15:00:29;13.80;99.90
1524;DHT22;755;53.658;10.118;2022-10-31T15:10:36;13.70;99.90
1524;DHT22;755;53.658;10.118;2022-10-31T15:20:43;13.80;99.90
1524;DHT22;755;53.658;10.118;2022-10-31T15:30:51;13.70;99.90
1524;DHT22;755;53.658;10.118;2022-10-31T15:41:00;13.60;99.90
1524;DHT22;755;53.658;10.118;2022-10-31T15:51:06;13.40;99.90
1524;DHT22;755;53.658;10.118;2022-10-31T16:01:22;13.20;99.90
1524;DHT22;755;53.658;10.118;2022-10-31T16:11:34;13.00;99.90
1524;DHT22;755;53.658;10.118;2022-10-31T16:21:38;12.80;99.90
1524;DHT22;755;53.658;10.118;2022-10-31T16:31:42;12.70;99.90
1524;DHT22;755;53.658;10.118;2022-10-31T16:41:47;12.50;99.90
1524;DHT22;755;53.658;10.118;2022-10-31T16:51:50;12.60;99.90
1524;DHT22;755;53.658;10.118;2022-10-31T17:01:54;12.60;99.90
1524;DHT22;755;53.658;10.118;2022-10-31T17:11:56;12.60;99.90
1524;DHT22;755;53.658;10.118;2022-10-31T17:22:00;12.60;99.90
1524;DHT22;755;53.658;10.118;2022-10-31T17:32:03;12.70;99.90
1524;DHT22;755;53.658;10.118;2022-10-31T17:42:06;12.60;99.90
1524;DHT22;755;53.658;10.118;2022-10-31T17:52:08;12.60;99.90
1524;DHT22;755;53.658;10.118;2022-10-31T18:02:11;12.60;99.90
1524;DHT22;755;53.658;10.118;2022-10-31T18:12:14;12.70;99.90
1524;DHT22;755;53.658;10.118;2022-10-31T18:22:17;12.60;99.90
1524;DHT22;755;53.658;10.118;2022-10-31T18:32:19;12.70;99.90
1524;DHT22;755;53.658;10.118;2022-10-31T18:42:23;12.60;99.90
1524;DHT22;755;53.658;10.118;2022-10-31T18:52:24;12.70;99.90
1524;DHT22;755;53.658;10.118;2022-10-31T19:02:28;12.70;99.90
1524;DHT22;755;53.658;10.118;2022-10-31T19:12:30;12.70;99.90
1524;DHT22;755;53.658;10.118;2022-10-31T19:22:34;12.70;99.90
1524;DHT22;755;53.658;10.118;2022-10-31T19:32:36;12.70;99.90
1524;DHT22;755;53.658;10.118;2022-10-31T19:42:39;12.70;99.90
1524;DHT22;755;53.658;10.118;2022-10-31T19:52:41;12.70;99.90
1524;DHT22;755;53.658;10.118;2022-10-31T20:02:45;12.60;99.90
1524;DHT22;755;53.658;10.118;2022-10-31T20:12:47;12.50;99.90
1524;DHT22;755;53.658;10.118;2022-10-31T20:22:50;12.50;99.90
1524;DHT22;755;53.658;10.118;2022-10-31T20:32:52;12.40;99.90
1524;DHT22;755;53.658;10.118;2022-10-31T20:42:55;12.30;99.90
1524;DHT22;755;53.658;10.118;2022-10-31T20:52:57;12.20;99.90
1524;DHT22;755;53.658;10.118;2022-10-31T21:03:01;12.20;99.90
1524;DHT22;755;53.658;10.118;2022-10-31T21:13:03;12.30;99.90
1524;DHT22;755;53.658;10.118;2022-10-31T21:23:06;12.40;99.90
1524;DHT22;755;53.658;10.118;2022-10-31T21:33:08;12.50;99.90
1524;DHT22;755;53.658;10.118;2022-10-31T21:43:12;12.50;99.90
1524;DHT22;755;53.658;10.118;2022-10-31T21:53:14;12.50;99.90
1524;DHT22;755;53.658;10.118;2022-10-31T22:03:36;12.60;99.90
1524;DHT22;755;53.658;10.118;2022-10-31T22:13:39;12.60;99.90
1524;DHT22;755;53.658;10.118;2022-10-31T22:23:43;12.70;99.90
1524;DHT22;755;53.658;10.118;2022-10-31T22:33:46;12.60;99.90
1524;DHT22;755;53.658;10.118;2022-10-31T22:43:50;12.60;99.90
1524;DHT22;755;53.658;10.118;2022-10-31T22:53:53;12.60;99.90
1524;DHT22;755;53.658;10.118;2022-10-31T23:03:57;12.60;99.90
1524;DHT22;755;53.658;10.118;2022-10-31T23:14:01;12.70;99.90
1524;DHT22;755;53.658;10.118;2022-10-31T23:24:11;12.60;99.90
1524;DHT22;755;53.658;10.118;2022-10-31T23:34:14;12.60;99.90
1524;DHT22;755;53.658;10.118;2022-10-31T23:44:17;12.60;99.90
1524;DHT22;755;53.658;10.118;2022-10-31T23:54:19;12.60;99.90
